createdAt,value
2016-09-15T00:00:42.239Z,0
2016-09-15T00:01:42.230Z,0
2016-09-15T00:02:42.227Z,0
2016-09-15T00:03:42.226Z,0
2016-09-15T00:04:42.242Z,0
2016-09-15T00:05:42.232Z,0
2016-09-15T00:06:42.215Z,0
2016-09-15T00:07:42.222Z,0
2016-09-15T00:08:42.216Z,0
2016-09-15T00:09:42.208Z,0
2016-09-15T00:10:42.208Z,0
2016-09-15T00:11:42.224Z,0
2016-09-15T00:12:42.203Z,0
2016-09-15T00:13:42.218Z,0
2016-09-15T00:14:42.209Z,0
2016-09-15T00:15:42.215Z,0
2016-09-15T00:16:42.197Z,0
2016-09-15T00:17:42.205Z,0
2016-09-15T00:18:42.191Z,0
2016-09-15T00:19:42.188Z,0
2016-09-15T00:20:42.185Z,0
2016-09-15T00:21:42.188Z,0
2016-09-15T00:22:42.176Z,0
2016-09-15T00:23:42.175Z,0
2016-09-15T00:24:42.181Z,0
2016-09-15T00:25:42.173Z,0
2016-09-15T00:26:42.174Z,0
2016-09-15T00:27:42.160Z,0
2016-09-15T00:28:42.157Z,0
2016-09-15T00:29:42.151Z,0
2016-09-15T00:30:42.160Z,0
2016-09-15T00:31:42.158Z,0
2016-09-15T00:32:42.145Z,0
2016-09-15T00:33:42.146Z,0
2016-09-15T00:34:42.154Z,0
2016-09-15T00:35:42.140Z,0
2016-09-15T00:36:42.136Z,0
2016-09-15T00:37:42.133Z,0
2016-09-15T00:38:42.134Z,0
2016-09-15T00:39:42.134Z,0
2016-09-15T00:40:42.123Z,0
2016-09-15T00:41:42.124Z,0
2016-09-15T00:42:42.115Z,0
2016-09-15T00:43:42.115Z,0
2016-09-15T00:44:42.123Z,0
2016-09-15T00:45:42.124Z,0
2016-09-15T00:46:42.111Z,0
2016-09-15T00:47:42.119Z,0
2016-09-15T00:48:42.101Z,0
2016-09-15T00:49:42.090Z,0
2016-09-15T00:50:42.099Z,0
2016-09-15T00:51:42.107Z,0
2016-09-15T00:52:42.082Z,0
2016-09-15T00:53:42.085Z,0
2016-09-15T00:54:42.094Z,0
2016-09-15T00:55:42.080Z,0
2016-09-15T00:56:42.073Z,0
2016-09-15T00:57:42.067Z,0
2016-09-15T00:58:42.074Z,0
2016-09-15T00:59:42.074Z,0
2016-09-15T01:00:42.073Z,0
2016-09-15T01:01:42.059Z,0
2016-09-15T01:02:42.065Z,0
2016-09-15T01:03:42.064Z,0
2016-09-15T01:04:42.067Z,0
2016-09-15T01:05:42.055Z,0
2016-09-15T01:06:42.043Z,0
2016-09-15T01:07:42.052Z,0
2016-09-15T01:08:42.047Z,0
2016-09-15T01:09:42.038Z,0
2016-09-15T01:10:42.039Z,0
2016-09-15T01:11:42.027Z,0
2016-09-15T01:12:42.024Z,0
2016-09-15T01:13:42.025Z,0
2016-09-15T01:14:42.018Z,0
2016-09-15T01:15:42.013Z,0
2016-09-15T01:16:42.008Z,0
2016-09-15T01:17:42.009Z,0
2016-09-15T01:18:42.007Z,0
2016-09-15T01:19:42.000Z,0
2016-09-15T01:20:42.018Z,0
2016-09-15T01:21:41.994Z,0
2016-09-15T01:22:41.991Z,0
2016-09-15T01:23:41.997Z,0
2016-09-15T01:24:41.986Z,0
2016-09-15T01:25:41.999Z,0
2016-09-15T01:26:41.975Z,0
2016-09-15T01:27:41.976Z,0
2016-09-15T01:28:41.968Z,0
2016-09-15T01:29:41.977Z,0
2016-09-15T01:30:41.965Z,0
2016-09-15T01:31:41.962Z,0
2016-09-15T01:32:41.961Z,0
2016-09-15T01:33:41.954Z,0
2016-09-15T01:34:41.945Z,0
2016-09-15T01:35:41.944Z,0
2016-09-15T01:36:41.946Z,0
2016-09-15T01:37:41.938Z,0
2016-09-15T01:38:41.933Z,0
2016-09-15T01:39:41.946Z,0
2016-09-15T01:40:41.933Z,0
2016-09-15T01:41:41.933Z,0
2016-09-15T01:42:41.952Z,0
2016-09-15T01:43:41.921Z,0
2016-09-15T01:44:41.912Z,0
2016-09-15T01:45:41.919Z,0
2016-09-15T01:46:41.918Z,0
2016-09-15T01:47:41.912Z,0
2016-09-15T01:48:41.907Z,0
2016-09-15T01:49:41.908Z,0
2016-09-15T01:50:41.946Z,0
2016-09-15T01:51:42.218Z,0
2016-09-15T01:52:41.903Z,0
2016-09-15T01:53:41.890Z,0
2016-09-15T01:54:41.880Z,0
2016-09-15T01:55:41.888Z,0
2016-09-15T01:56:41.869Z,0
2016-09-15T01:57:41.874Z,0
2016-09-15T01:58:41.877Z,0
2016-09-15T01:59:41.873Z,0
2016-09-15T02:00:41.866Z,0
2016-09-15T02:01:41.870Z,0
2016-09-15T02:02:41.862Z,0
2016-09-15T02:03:41.849Z,0
2016-09-15T02:04:41.851Z,0
2016-09-15T02:05:41.851Z,0
2016-09-15T02:06:41.838Z,0
2016-09-15T02:07:41.842Z,0
2016-09-15T02:08:41.831Z,0
2016-09-15T02:09:41.835Z,0
2016-09-15T02:10:41.832Z,0
2016-09-15T02:11:41.848Z,0
2016-09-15T02:12:41.817Z,0
2016-09-15T02:13:42.134Z,0
2016-09-15T02:14:41.840Z,0
2016-09-15T02:15:41.823Z,0
2016-09-15T02:16:41.807Z,0
2016-09-15T02:17:41.806Z,0
2016-09-15T02:18:41.807Z,0
2016-09-15T02:19:41.800Z,0
2016-09-15T02:20:41.802Z,0
2016-09-15T02:21:41.782Z,0
2016-09-15T02:22:41.786Z,0
2016-09-15T02:23:41.779Z,0
2016-09-15T02:24:41.780Z,0
2016-09-15T02:25:41.790Z,0
2016-09-15T02:26:42.092Z,0
2016-09-15T02:27:41.772Z,0
2016-09-15T02:28:41.769Z,0
2016-09-15T02:29:41.775Z,0
2016-09-15T02:30:41.781Z,0
2016-09-15T02:31:41.750Z,0
2016-09-15T02:32:41.752Z,0
2016-09-15T02:33:41.745Z,0
2016-09-15T02:34:41.757Z,0
2016-09-15T02:35:41.748Z,0
2016-09-15T02:36:41.735Z,0
2016-09-15T02:37:41.730Z,0
2016-09-15T02:38:41.729Z,0
2016-09-15T02:39:41.721Z,0
2016-09-15T02:40:41.715Z,0
2016-09-15T02:41:41.717Z,0
2016-09-15T02:42:42.034Z,0
2016-09-15T02:43:41.702Z,0
2016-09-15T02:44:41.701Z,0
2016-09-15T02:45:41.703Z,0
2016-09-15T02:46:41.700Z,0
2016-09-15T02:47:41.695Z,0
2016-09-15T02:48:41.698Z,0
2016-09-15T02:49:41.685Z,0
2016-09-15T02:50:41.715Z,0
2016-09-15T02:51:41.681Z,0
2016-09-15T02:52:41.680Z,0
2016-09-15T02:53:41.674Z,0
2016-09-15T02:54:41.703Z,0
2016-09-15T02:55:41.672Z,0
2016-09-15T02:56:41.665Z,0
2016-09-15T02:57:41.671Z,0
2016-09-15T02:58:41.649Z,0
2016-09-15T02:59:41.655Z,0
2016-09-15T03:00:41.654Z,0
2016-09-15T03:01:41.656Z,0
2016-09-15T03:02:41.641Z,0
2016-09-15T03:03:41.652Z,0
2016-09-15T03:04:41.641Z,0
2016-09-15T03:05:41.629Z,0
2016-09-15T03:06:41.634Z,0
2016-09-15T03:07:41.641Z,0
2016-09-15T03:08:41.618Z,0
2016-09-15T03:09:41.616Z,0
2016-09-15T03:10:41.630Z,0
2016-09-15T03:11:41.608Z,0
2016-09-15T03:12:41.612Z,0
2016-09-15T03:13:41.606Z,0
2016-09-15T03:14:41.920Z,0
2016-09-15T03:15:41.909Z,0
2016-09-15T03:16:41.606Z,0
2016-09-15T03:17:41.624Z,0
2016-09-15T03:18:41.617Z,0
2016-09-15T03:19:41.626Z,0
2016-09-15T03:20:41.589Z,0
2016-09-15T03:21:41.880Z,0
2016-09-15T03:22:41.578Z,0
2016-09-15T03:23:41.555Z,0
2016-09-15T03:24:41.561Z,0
2016-09-15T03:25:41.567Z,0
2016-09-15T03:26:41.571Z,0
2016-09-15T03:27:41.582Z,0
2016-09-15T03:28:41.874Z,0
2016-09-15T03:29:41.603Z,0
2016-09-15T03:30:41.920Z,0
2016-09-15T03:31:41.611Z,0
2016-09-15T03:32:41.855Z,0
2016-09-15T03:33:41.849Z,0
2016-09-15T03:34:41.536Z,0
2016-09-15T03:35:41.536Z,0
2016-09-15T03:36:41.544Z,0
2016-09-15T03:37:41.549Z,0
2016-09-15T03:38:41.556Z,0
2016-09-15T03:39:41.871Z,0
2016-09-15T03:40:41.812Z,0
2016-09-15T03:41:41.579Z,0
2016-09-15T03:42:41.675Z,0
2016-09-15T03:43:41.594Z,0
2016-09-15T03:44:41.550Z,0
2016-09-15T03:45:41.508Z,0
2016-09-15T03:46:41.511Z,0
2016-09-15T03:47:41.522Z,0
2016-09-15T03:48:41.532Z,0
2016-09-15T03:49:41.538Z,0
2016-09-15T03:50:41.544Z,0
2016-09-15T03:51:41.853Z,0
2016-09-15T03:52:41.502Z,0
2016-09-15T03:53:41.563Z,0
2016-09-15T03:54:41.510Z,0
2016-09-15T03:55:41.514Z,0
2016-09-15T03:56:41.892Z,0
2016-09-15T03:57:41.486Z,0
2016-09-15T03:58:41.501Z,0
2016-09-15T03:59:41.504Z,0
2016-09-15T04:00:41.517Z,0
2016-09-15T04:01:41.453Z,0
2016-09-15T04:02:41.473Z,0
2016-09-15T04:03:41.471Z,0
2016-09-15T04:04:41.474Z,0
2016-09-15T04:05:41.483Z,0
2016-09-15T04:06:41.809Z,0
2016-09-15T04:07:41.502Z,0
2016-09-15T04:08:41.516Z,0
2016-09-15T04:09:41.520Z,0
2016-09-15T04:10:41.481Z,0
2016-09-15T04:11:41.481Z,0
2016-09-15T04:12:41.439Z,0
2016-09-15T04:13:41.458Z,0
2016-09-15T04:14:41.440Z,0
2016-09-15T04:15:41.480Z,0
2016-09-15T04:16:41.479Z,0
2016-09-15T04:17:41.805Z,4
2016-09-15T04:18:41.483Z,4
2016-09-15T04:19:41.796Z,0
2016-09-15T04:20:41.491Z,4
2016-09-15T04:21:41.410Z,4
2016-09-15T04:22:41.409Z,4
2016-09-15T04:23:41.403Z,4
2016-09-15T04:24:41.422Z,8
2016-09-15T04:25:41.427Z,8
2016-09-15T04:26:41.442Z,12
2016-09-15T04:27:41.440Z,12
2016-09-15T04:28:41.453Z,20
2016-09-15T04:29:41.457Z,20
2016-09-15T04:30:41.464Z,24
2016-09-15T04:31:41.477Z,28
2016-09-15T04:32:41.421Z,32
2016-09-15T04:33:41.418Z,36
2016-09-15T04:34:41.431Z,44
2016-09-15T04:35:41.407Z,52
2016-09-15T04:36:41.770Z,60
2016-09-15T04:37:41.416Z,68
2016-09-15T04:38:41.424Z,76
2016-09-15T04:39:41.748Z,84
2016-09-15T04:40:41.394Z,96
2016-09-15T04:41:41.739Z,108
2016-09-15T04:42:41.396Z,120
2016-09-15T04:43:41.390Z,136
2016-09-15T04:44:41.401Z,148
2016-09-15T04:45:41.400Z,164
2016-09-15T04:46:41.418Z,180
2016-09-15T04:47:41.397Z,192
2016-09-15T04:48:41.700Z,212
2016-09-15T04:49:41.325Z,228
2016-09-15T04:50:41.422Z,252
2016-09-15T04:51:41.667Z,272
2016-09-15T04:52:41.347Z,288
2016-09-15T04:53:41.356Z,312
2016-09-15T04:54:41.362Z,336
2016-09-15T04:55:41.378Z,360
2016-09-15T04:56:41.375Z,380
2016-09-15T04:57:41.391Z,408
2016-09-15T04:58:41.398Z,436
2016-09-15T04:59:41.402Z,460
2016-09-15T05:00:41.302Z,488
2016-09-15T05:01:41.327Z,516
2016-09-15T05:02:41.331Z,548
2016-09-15T05:03:41.322Z,580
2016-09-15T05:04:41.340Z,612
2016-09-15T05:05:41.344Z,636
2016-09-15T05:06:41.351Z,668
2016-09-15T05:07:41.370Z,700
2016-09-15T05:08:41.370Z,732
2016-09-15T05:09:41.391Z,764
2016-09-15T05:10:41.369Z,796
2016-09-15T05:11:41.237Z,824
2016-09-15T05:12:41.298Z,856
2016-09-15T05:13:41.295Z,884
2016-09-15T05:14:41.310Z,916
2016-09-15T05:15:41.635Z,948
2016-09-15T05:16:41.325Z,980
2016-09-15T05:17:41.332Z,1008
2016-09-15T05:18:41.200Z,1028
2016-09-15T05:19:41.322Z,1052
2016-09-15T05:20:41.187Z,1080
2016-09-15T05:21:41.182Z,1112
2016-09-15T05:22:41.162Z,1144
2016-09-15T05:23:41.170Z,1172
2016-09-15T05:24:41.299Z,1200
2016-09-15T05:25:41.293Z,1224
2016-09-15T05:26:41.315Z,1248
2016-09-15T05:27:41.161Z,1276
2016-09-15T05:28:41.139Z,1308
2016-09-15T05:29:41.147Z,1336
2016-09-15T05:30:41.178Z,1364
2016-09-15T05:31:41.151Z,1392
2016-09-15T05:32:41.168Z,1420
2016-09-15T05:33:41.170Z,1452
2016-09-15T05:34:41.178Z,1484
2016-09-15T05:35:41.159Z,1508
2016-09-15T05:36:41.161Z,1528
2016-09-15T05:37:41.156Z,1556
2016-09-15T05:38:41.131Z,1580
2016-09-15T05:39:41.136Z,1600
2016-09-15T05:40:41.134Z,1620
2016-09-15T05:41:41.455Z,1640
2016-09-15T05:42:41.129Z,1664
2016-09-15T05:43:40.999Z,1692
2016-09-15T05:44:40.991Z,1716
2016-09-15T05:45:40.987Z,1740
2016-09-15T05:46:41.539Z,1756
2016-09-15T05:47:41.177Z,1780
2016-09-15T05:48:40.977Z,1808
2016-09-15T05:49:40.975Z,1832
2016-09-15T05:50:41.014Z,1852
2016-09-15T05:51:40.963Z,1868
2016-09-15T05:52:41.000Z,1884
2016-09-15T05:53:40.980Z,1900
2016-09-15T05:54:40.961Z,1924
2016-09-15T05:55:40.980Z,1944
2016-09-15T05:56:40.957Z,1960
2016-09-15T05:57:40.961Z,1968
2016-09-15T05:58:40.951Z,1988
2016-09-15T05:59:40.947Z,2016
2016-09-15T06:00:40.826Z,2032
2016-09-15T06:01:40.810Z,2048
2016-09-15T06:02:41.133Z,2068
2016-09-15T06:03:40.803Z,2088
2016-09-15T06:04:40.790Z,2112
2016-09-15T06:05:40.795Z,2132
2016-09-15T06:06:40.795Z,2148
2016-09-15T06:07:40.794Z,2168
2016-09-15T06:08:40.779Z,2184
2016-09-15T06:09:40.977Z,2200
2016-09-15T06:10:40.807Z,2220
2016-09-15T06:11:40.759Z,2232
2016-09-15T06:12:40.756Z,2236
2016-09-15T06:13:41.172Z,2256
2016-09-15T06:14:40.749Z,2264
2016-09-15T06:15:40.754Z,2276
2016-09-15T06:16:40.729Z,2300
2016-09-15T06:17:40.730Z,2320
2016-09-15T06:18:40.942Z,2328
2016-09-15T06:19:40.731Z,2340
2016-09-15T06:20:40.719Z,2348
2016-09-15T06:21:40.718Z,2360
2016-09-15T06:22:40.725Z,2356
2016-09-15T06:23:40.707Z,2364
2016-09-15T06:24:40.701Z,2372
2016-09-15T06:25:40.703Z,2380
2016-09-15T06:26:40.689Z,2404
2016-09-15T06:27:40.698Z,2420
2016-09-15T06:28:40.680Z,2440
2016-09-15T06:29:40.685Z,2460
2016-09-15T06:30:40.686Z,2476
2016-09-15T06:31:40.667Z,2488
2016-09-15T06:32:40.675Z,2500
2016-09-15T06:33:40.683Z,2512
2016-09-15T06:34:40.648Z,2524
2016-09-15T06:35:40.656Z,2536
2016-09-15T06:36:40.674Z,2552
2016-09-15T06:37:40.637Z,2564
2016-09-15T06:38:40.647Z,2580
2016-09-15T06:39:40.924Z,2592
2016-09-15T06:40:40.632Z,2600
2016-09-15T06:41:40.626Z,2604
2016-09-15T06:42:40.618Z,2608
2016-09-15T06:43:40.615Z,2612
2016-09-15T06:44:40.609Z,2616
2016-09-15T06:45:40.605Z,2624
2016-09-15T06:46:40.609Z,2628
2016-09-15T06:47:40.593Z,2628
2016-09-15T06:48:40.589Z,2636
2016-09-15T06:49:40.588Z,2656
2016-09-15T06:50:40.644Z,2664
2016-09-15T06:51:40.577Z,2664
2016-09-15T06:52:40.571Z,2684
2016-09-15T06:53:40.571Z,2700
2016-09-15T06:54:40.578Z,2724
2016-09-15T06:55:40.567Z,2736
2016-09-15T06:56:40.569Z,2752
2016-09-15T06:57:40.551Z,2760
2016-09-15T06:58:40.556Z,2776
2016-09-15T06:59:40.541Z,2792
2016-09-15T07:00:40.561Z,2800
2016-09-15T07:01:40.542Z,2816
2016-09-15T07:02:40.537Z,2832
2016-09-15T07:03:40.538Z,2844
2016-09-15T07:04:40.533Z,2848
2016-09-15T07:05:40.522Z,2856
2016-09-15T07:06:40.517Z,2864
2016-09-15T07:07:40.519Z,2876
2016-09-15T07:08:40.516Z,2892
2016-09-15T07:09:40.511Z,2896
2016-09-15T07:10:40.505Z,2904
2016-09-15T07:11:40.934Z,2928
2016-09-15T07:12:40.499Z,2924
2016-09-15T07:13:40.493Z,2920
2016-09-15T07:14:40.490Z,2940
2016-09-15T07:15:40.486Z,2924
2016-09-15T07:16:40.487Z,2936
2016-09-15T07:17:41.054Z,2948
2016-09-15T07:18:40.468Z,2956
2016-09-15T07:19:40.475Z,2952
2016-09-15T07:20:40.471Z,2932
2016-09-15T07:21:40.465Z,2932
2016-09-15T07:22:40.464Z,2924
2016-09-15T07:23:40.453Z,2916
2016-09-15T07:24:40.448Z,2928
2016-09-15T07:25:40.450Z,2928
2016-09-15T07:26:40.453Z,2912
2016-09-15T07:27:40.441Z,2928
2016-09-15T07:28:40.441Z,2916
2016-09-15T07:29:40.442Z,2916
2016-09-15T07:30:40.444Z,2928
2016-09-15T07:31:40.427Z,2940
2016-09-15T07:32:40.430Z,2952
2016-09-15T07:33:40.421Z,2944
2016-09-15T07:34:40.420Z,2948
2016-09-15T07:35:40.427Z,2964
2016-09-15T07:36:40.425Z,2956
2016-09-15T07:37:40.414Z,2956
2016-09-15T07:38:40.425Z,2952
2016-09-15T07:39:40.410Z,2824
2016-09-15T07:40:40.723Z,2960
2016-09-15T07:41:40.401Z,3012
2016-09-15T07:42:40.399Z,2980
2016-09-15T07:43:40.407Z,2972
2016-09-15T07:44:40.420Z,2944
2016-09-15T07:45:40.394Z,3012
2016-09-15T07:46:40.555Z,3016
2016-09-15T07:47:40.413Z,3024
2016-09-15T07:48:43.508Z,3016
2016-09-15T07:49:40.404Z,3068
2016-09-15T07:50:40.438Z,3016
2016-09-15T07:51:40.393Z,3016
2016-09-15T07:52:40.393Z,3012
2016-09-15T07:53:40.387Z,3008
2016-09-15T07:54:40.401Z,3008
2016-09-15T07:55:40.393Z,3016
2016-09-15T07:56:40.605Z,3028
2016-09-15T07:57:40.382Z,3036
2016-09-15T07:58:40.383Z,3044
2016-09-15T07:59:40.370Z,3056
2016-09-15T08:00:40.367Z,3056
2016-09-15T08:01:40.363Z,3052
2016-09-15T08:02:40.687Z,3044
2016-09-15T08:03:40.369Z,3044
2016-09-15T08:04:40.358Z,3056
2016-09-15T08:05:40.362Z,3060
2016-09-15T08:06:40.369Z,3056
2016-09-15T08:07:40.367Z,3044
2016-09-15T08:08:40.374Z,3056
2016-09-15T08:09:40.358Z,3072
2016-09-15T08:10:40.368Z,3048
2016-09-15T08:11:40.391Z,3032
2016-09-15T08:12:40.379Z,3024
2016-09-15T08:13:40.368Z,3016
2016-09-15T08:14:40.356Z,3008
2016-09-15T08:15:40.740Z,2996
2016-09-15T08:16:40.364Z,3020
2016-09-15T08:17:40.357Z,3016
2016-09-15T08:18:40.360Z,3008
2016-09-15T08:19:40.356Z,3000
2016-09-15T08:20:40.363Z,3000
2016-09-15T08:21:40.366Z,3000
2016-09-15T08:22:40.680Z,2996
2016-09-15T08:23:40.371Z,2992
2016-09-15T08:24:40.349Z,3016
2016-09-15T08:25:40.360Z,3008
2016-09-15T08:26:40.349Z,3020
2016-09-15T08:27:40.342Z,3004
2016-09-15T08:28:40.348Z,2980
2016-09-15T08:29:40.398Z,2960
2016-09-15T08:30:40.364Z,2980
2016-09-15T08:31:40.349Z,2980
2016-09-15T08:32:40.352Z,3004
2016-09-15T08:33:40.375Z,3016
2016-09-15T08:34:40.360Z,3000
2016-09-15T08:35:40.354Z,3004
2016-09-15T08:36:40.358Z,2988
2016-09-15T08:37:40.708Z,2988
2016-09-15T08:38:40.368Z,3004
2016-09-15T08:39:40.375Z,3000
2016-09-15T08:40:40.342Z,3000
2016-09-15T08:41:40.347Z,3012
2016-09-15T08:42:40.367Z,2988
2016-09-15T08:43:40.717Z,2980
2016-09-15T08:44:40.348Z,2972
2016-09-15T08:45:40.350Z,2976
2016-09-15T08:46:40.355Z,2980
2016-09-15T08:47:40.361Z,2952
2016-09-15T08:48:40.365Z,2948
2016-09-15T08:49:40.551Z,2956
2016-09-15T08:50:40.829Z,2940
2016-09-15T08:51:40.367Z,2920
2016-09-15T08:52:40.579Z,2896
2016-09-15T08:53:41.040Z,2896
2016-09-15T08:54:41.432Z,2868
2016-09-15T08:55:41.198Z,2864
2016-09-15T08:56:40.368Z,2880
2016-09-15T08:57:40.374Z,2884
2016-09-15T08:58:40.366Z,2880
2016-09-15T08:59:40.362Z,2880
2016-09-15T09:00:40.366Z,2868
2016-09-15T09:01:40.368Z,2848
2016-09-15T09:02:40.368Z,2852
2016-09-15T09:03:40.373Z,2848
2016-09-15T09:04:40.361Z,2836
2016-09-15T09:05:40.371Z,2828
2016-09-15T09:06:40.375Z,2808
2016-09-15T09:07:40.371Z,2808
2016-09-15T09:08:40.391Z,2776
2016-09-15T09:09:40.374Z,2772
2016-09-15T09:10:40.365Z,2768
2016-09-15T09:11:40.374Z,2756
2016-09-15T09:12:40.793Z,2748
2016-09-15T09:13:40.370Z,2748
2016-09-15T09:14:40.375Z,2732
2016-09-15T09:15:40.569Z,2752
2016-09-15T09:16:40.399Z,2736
2016-09-15T09:17:40.377Z,2768
2016-09-15T09:18:40.377Z,2756
2016-09-15T09:19:40.377Z,2728
2016-09-15T09:20:40.379Z,2744
2016-09-15T09:21:40.380Z,2736
2016-09-15T09:22:40.401Z,2736
2016-09-15T09:23:40.394Z,2720
2016-09-15T09:24:40.379Z,2736
2016-09-15T09:25:40.392Z,2724
2016-09-15T09:26:40.378Z,2728
2016-09-15T09:27:40.385Z,2736
2016-09-15T09:28:40.380Z,2728
2016-09-15T09:29:40.402Z,2720
2016-09-15T09:30:40.390Z,2712
2016-09-15T09:31:40.390Z,2696
2016-09-15T09:32:40.402Z,2704
2016-09-15T09:33:40.390Z,2696
2016-09-15T09:34:40.398Z,2684
2016-09-15T09:35:40.388Z,2688
2016-09-15T09:36:40.388Z,2680
2016-09-15T09:37:40.394Z,2668
2016-09-15T09:38:40.402Z,2660
2016-09-15T09:39:40.409Z,2668
2016-09-15T09:40:40.413Z,2664
2016-09-15T09:41:40.418Z,2668
2016-09-15T09:42:40.405Z,2668
2016-09-15T09:43:40.409Z,2644
2016-09-15T09:44:40.417Z,2640
2016-09-15T09:45:40.410Z,2640
2016-09-15T09:46:40.408Z,2644
2016-09-15T09:47:40.423Z,2628
2016-09-15T09:48:40.407Z,2612
2016-09-15T09:49:40.430Z,2620
2016-09-15T09:50:40.415Z,2612
2016-09-15T09:51:40.470Z,2612
2016-09-15T09:52:40.435Z,2604
2016-09-15T09:53:40.431Z,2596
2016-09-15T09:54:40.435Z,2568
2016-09-15T09:55:40.425Z,2556
2016-09-15T09:56:40.434Z,2556
2016-09-15T09:57:40.436Z,2580
2016-09-15T09:58:40.449Z,2568
2016-09-15T09:59:40.453Z,2556
2016-09-15T10:00:40.429Z,2544
2016-09-15T10:01:40.464Z,2524
2016-09-15T10:02:40.429Z,2520
2016-09-15T10:03:40.439Z,2532
2016-09-15T10:04:40.437Z,2544
2016-09-15T10:05:40.452Z,2540
2016-09-15T10:06:40.439Z,2544
2016-09-15T10:07:40.459Z,2532
2016-09-15T10:08:40.446Z,2528
2016-09-15T10:09:40.467Z,2512
2016-09-15T10:10:40.457Z,2508
2016-09-15T10:11:40.453Z,2496
2016-09-15T10:12:40.455Z,2504
2016-09-15T10:13:40.772Z,2496
2016-09-15T10:14:40.466Z,2500
2016-09-15T10:15:40.463Z,2488
2016-09-15T10:16:40.471Z,2456
2016-09-15T10:17:40.479Z,2464
2016-09-15T10:18:40.490Z,2444
2016-09-15T10:19:40.483Z,2444
2016-09-15T10:20:40.492Z,2452
2016-09-15T10:21:40.469Z,2440
2016-09-15T10:22:40.473Z,2424
2016-09-15T10:23:40.482Z,2412
2016-09-15T10:24:40.483Z,2416
2016-09-15T10:25:40.494Z,2404
2016-09-15T10:26:40.881Z,2396
2016-09-15T10:27:40.490Z,2396
2016-09-15T10:28:40.514Z,2392
2016-09-15T10:29:40.502Z,2392
2016-09-15T10:30:40.491Z,2396
2016-09-15T10:31:40.497Z,2384
2016-09-15T10:32:40.507Z,2392
2016-09-15T10:33:40.497Z,2348
2016-09-15T10:34:40.509Z,2336
2016-09-15T10:35:40.507Z,2320
2016-09-15T10:36:40.515Z,2276
2016-09-15T10:37:40.517Z,2280
2016-09-15T10:38:40.523Z,2280
2016-09-15T10:39:40.525Z,2276
2016-09-15T10:40:40.514Z,2276
2016-09-15T10:41:40.514Z,2288
2016-09-15T10:42:40.516Z,2296
2016-09-15T10:43:40.932Z,2316
2016-09-15T10:44:40.531Z,2312
2016-09-15T10:45:40.532Z,2296
2016-09-15T10:46:40.844Z,2292
2016-09-15T10:47:40.527Z,2296
2016-09-15T10:48:40.536Z,2320
2016-09-15T10:49:40.528Z,2332
2016-09-15T10:50:40.689Z,2328
2016-09-15T10:51:40.551Z,2340
2016-09-15T10:52:40.545Z,2332
2016-09-15T10:53:40.570Z,2316
2016-09-15T10:54:40.746Z,2332
2016-09-15T10:55:40.552Z,2340
2016-09-15T10:56:40.562Z,2336
2016-09-15T10:57:40.565Z,2328
2016-09-15T10:58:40.571Z,2332
2016-09-15T10:59:40.703Z,2344
2016-09-15T11:00:40.691Z,2336
2016-09-15T11:01:40.570Z,2336
2016-09-15T11:02:40.568Z,2328
2016-09-15T11:03:40.693Z,2328
2016-09-15T11:04:40.697Z,2316
2016-09-15T11:05:40.686Z,2316
2016-09-15T11:06:40.705Z,2300
2016-09-15T11:07:40.692Z,2288
2016-09-15T11:08:40.697Z,2296
2016-09-15T11:09:40.704Z,2304
2016-09-15T11:10:40.696Z,2300
2016-09-15T11:11:40.705Z,2292
2016-09-15T11:12:40.708Z,2276
2016-09-15T11:13:40.709Z,2260
2016-09-15T11:14:40.703Z,2260
2016-09-15T11:15:40.695Z,2256
2016-09-15T11:16:40.838Z,2244
2016-09-15T11:17:41.012Z,2232
2016-09-15T11:18:40.717Z,2236
2016-09-15T11:19:40.731Z,2252
2016-09-15T11:20:40.700Z,2228
2016-09-15T11:21:40.698Z,2228
2016-09-15T11:22:41.035Z,2228
2016-09-15T11:23:40.837Z,2232
2016-09-15T11:24:40.839Z,2216
2016-09-15T11:25:40.839Z,2236
2016-09-15T11:26:41.132Z,2216
2016-09-15T11:27:40.855Z,2208
2016-09-15T11:28:40.847Z,2196
2016-09-15T11:29:40.833Z,2184
2016-09-15T11:30:40.842Z,2172
2016-09-15T11:31:40.862Z,2164
2016-09-15T11:32:40.859Z,2172
2016-09-15T11:33:40.857Z,2164
2016-09-15T11:34:40.865Z,2160
2016-09-15T11:35:40.863Z,2160
2016-09-15T11:36:40.863Z,2140
2016-09-15T11:37:40.873Z,2128
2016-09-15T11:38:40.869Z,2124
2016-09-15T11:39:40.841Z,2132
2016-09-15T11:40:40.822Z,2136
2016-09-15T11:41:40.832Z,2132
2016-09-15T11:42:41.031Z,2132
2016-09-15T11:43:40.826Z,2148
2016-09-15T11:44:40.845Z,2152
2016-09-15T11:45:40.832Z,2160
2016-09-15T11:46:40.849Z,2152
2016-09-15T11:47:40.833Z,2144
2016-09-15T11:48:40.846Z,2152
2016-09-15T11:49:40.846Z,2148
2016-09-15T11:50:40.850Z,2156
2016-09-15T11:51:40.851Z,2088
2016-09-15T11:52:40.981Z,2144
2016-09-15T11:53:40.851Z,2148
2016-09-15T11:54:40.964Z,2164
2016-09-15T11:55:40.988Z,2176
2016-09-15T11:56:40.978Z,2168
2016-09-15T11:57:40.969Z,2176
2016-09-15T11:58:41.310Z,2180
2016-09-15T11:59:40.995Z,2188
2016-09-15T12:00:41.006Z,2188
2016-09-15T12:01:41.006Z,2200
2016-09-15T12:02:40.890Z,2196
2016-09-15T12:03:40.881Z,2196
2016-09-15T12:04:40.887Z,2192
2016-09-15T12:05:40.891Z,2180
2016-09-15T12:06:40.945Z,2172
2016-09-15T12:07:40.944Z,2168
2016-09-15T12:08:40.954Z,2172
2016-09-15T12:09:40.956Z,2172
2016-09-15T12:10:40.971Z,2160
2016-09-15T12:11:40.978Z,2152
2016-09-15T12:12:40.982Z,2144
2016-09-15T12:13:40.990Z,2156
2016-09-15T12:14:40.993Z,2136
2016-09-15T12:15:41.139Z,2128
2016-09-15T12:16:41.009Z,2124
2016-09-15T12:17:41.041Z,2128
2016-09-15T12:18:41.014Z,2116
2016-09-15T12:19:40.936Z,2120
2016-09-15T12:20:40.940Z,2120
2016-09-15T12:21:40.943Z,2124
2016-09-15T12:22:40.949Z,2128
2016-09-15T12:23:40.968Z,2136
2016-09-15T12:24:40.971Z,2148
2016-09-15T12:25:40.975Z,2148
2016-09-15T12:26:40.978Z,2144
2016-09-15T12:27:40.984Z,2148
2016-09-15T12:28:40.987Z,2156
2016-09-15T12:29:41.006Z,2164
2016-09-15T12:30:41.011Z,2156
2016-09-15T12:31:41.025Z,2144
2016-09-15T12:32:40.992Z,2136
2016-09-15T12:33:40.939Z,2132
2016-09-15T12:34:40.928Z,2132
2016-09-15T12:35:40.937Z,2128
2016-09-15T12:36:40.957Z,2120
2016-09-15T12:37:40.948Z,2112
2016-09-15T12:38:40.963Z,2116
2016-09-15T12:39:40.971Z,2124
2016-09-15T12:40:40.987Z,2136
2016-09-15T12:41:40.997Z,2124
2016-09-15T12:42:40.988Z,2124
2016-09-15T12:43:41.000Z,2116
2016-09-15T12:44:40.974Z,2116
2016-09-15T12:45:40.976Z,2116
2016-09-15T12:46:40.975Z,2124
2016-09-15T12:47:40.991Z,2112
2016-09-15T12:48:41.014Z,2104
2016-09-15T12:49:41.011Z,2100
2016-09-15T12:50:41.079Z,2108
2016-09-15T12:51:41.014Z,2104
2016-09-15T12:52:41.028Z,2096
2016-09-15T12:53:41.011Z,2088
2016-09-15T12:54:40.985Z,2084
2016-09-15T12:55:40.987Z,2072
2016-09-15T12:56:41.014Z,2064
2016-09-15T12:57:41.287Z,2064
2016-09-15T12:58:40.979Z,2072
2016-09-15T12:59:40.979Z,2076
2016-09-15T13:00:40.992Z,2064
2016-09-15T13:01:40.997Z,2060
2016-09-15T13:02:41.314Z,2056
2016-09-15T13:03:41.011Z,2056
2016-09-15T13:04:41.050Z,2060
2016-09-15T13:05:41.038Z,2056
2016-09-15T13:06:41.029Z,2064
2016-09-15T13:07:41.030Z,2072
2016-09-15T13:08:41.046Z,2068
2016-09-15T13:09:40.953Z,2068
2016-09-15T13:10:40.950Z,2068
2016-09-15T13:11:40.955Z,2068
2016-09-15T13:12:40.969Z,2064
2016-09-15T13:13:40.984Z,2068
2016-09-15T13:14:40.985Z,2060
2016-09-15T13:15:40.994Z,2060
2016-09-15T13:16:40.998Z,2060
2016-09-15T13:17:41.008Z,2052
2016-09-15T13:18:41.011Z,2060
2016-09-15T13:19:41.026Z,2052
2016-09-15T13:20:41.028Z,2040
2016-09-15T13:21:41.039Z,2028
2016-09-15T13:22:41.004Z,2028
2016-09-15T13:23:41.125Z,2028
2016-09-15T13:24:41.027Z,2020
2016-09-15T13:25:41.098Z,2028
2016-09-15T13:26:41.032Z,2032
2016-09-15T13:27:40.982Z,2040
2016-09-15T13:28:41.004Z,2036
2016-09-15T13:29:41.000Z,2040
2016-09-15T13:30:41.007Z,2028
2016-09-15T13:31:41.032Z,2052
2016-09-15T13:32:41.013Z,2032
2016-09-15T13:33:41.027Z,2032
2016-09-15T13:34:40.996Z,2032
2016-09-15T13:35:40.996Z,2036
2016-09-15T13:36:41.019Z,2036
2016-09-15T13:37:41.329Z,2032
2016-09-15T13:38:41.015Z,2032
2016-09-15T13:39:41.029Z,2032
2016-09-15T13:40:41.035Z,2028
2016-09-15T13:41:41.043Z,2032
2016-09-15T13:42:41.052Z,2032
2016-09-15T13:43:41.057Z,2024
2016-09-15T13:44:41.068Z,2024
2016-09-15T13:45:41.064Z,2020
2016-09-15T13:46:41.077Z,2016
2016-09-15T13:47:40.993Z,2020